Time;durP1;ratioP1;P1;durP2;ratioP2;P2;SDS_P1;SDS_P2;PMS_P1;PMS_P2;Temp;Humidity;BMP_temperature;BMP_pressure;BME280_temperature;BME280_humidity;BME280_pressure;Samples;Min_cycle;Max_cycle;Signal;HPM_P1;HPM_P2
2022/02/21 00:00:16;;;;;;;3.25;1.08;;;7.90;99.90;;;;;;5088974;28;20556;-56
2022/02/21 00:02:45;;;;;;;4.65;1.10;;;7.60;99.90;;;;;;5088521;28;20707;-53
2022/02/21 00:05:14;;;;;;;4.35;1.00;;;7.60;99.90;;;;;;5088777;28;20023;-54
2022/02/21 00:07:40;;;;;;;5.28;1.30;;;7.40;99.90;;;;;;5088882;28;20028;-54
2022/02/21 00:10:07;;;;;;;4.75;1.13;;;7.30;99.90;;;;;;5088911;28;20032;-54
2022/02/21 00:12:34;;;;;;;1.90;0.73;;;7.30;99.90;;;;;;5088559;28;20027;-55
2022/02/21 00:15:00;;;;;;;2.55;0.88;;;7.20;99.90;;;;;;5088753;28;20020;-56
2022/02/21 00:17:26;;;;;;;4.68;1.20;;;7.20;99.90;;;;;;5088958;28;20028;-56
2022/02/21 00:19:52;;;;;;;5.80;1.40;;;7.20;99.90;;;;;;5092007;28;20157;-53
2022/02/21 00:22:17;;;;;;;4.07;1.10;;;7.10;99.90;;;;;;5092966;28;20157;-56
2022/02/21 00:24:43;;;;;;;2.75;0.90;;;7.00;99.90;;;;;;5093185;28;20020;-58
2022/02/21 00:27:08;;;;;;;3.88;1.05;;;6.90;99.90;;;;;;5092513;28;20020;-52
2022/02/21 00:29:34;;;;;;;7.53;1.20;;;6.90;99.90;;;;;;5093081;28;20020;-53
2022/02/21 00:32:00;;;;;;;1.75;0.77;;;6.80;99.90;;;;;;5092721;28;20024;-56
2022/02/21 00:34:25;;;;;;;6.25;1.52;;;6.70;99.90;;;;;;5092487;28;20032;-55
2022/02/21 00:36:51;;;;;;;6.20;1.10;;;6.70;99.90;;;;;;5092002;28;20039;-50
2022/02/21 00:39:16;;;;;;;2.72;1.15;;;6.60;99.90;;;;;;5092625;28;20462;-55
2022/02/21 00:41:42;;;;;;;4.93;0.88;;;6.60;99.90;;;;;;5092459;28;20175;-56
2022/02/21 00:44:07;;;;;;;1.27;0.85;;;6.60;99.90;;;;;;5092424;28;20035;-56
2022/02/21 00:46:33;;;;;;;3.38;0.57;;;6.50;99.90;;;;;;5092165;28;20028;-53
2022/02/21 00:48:59;;;;;;;2.85;0.60;;;6.40;99.90;;;;;;5092240;28;20395;-56
2022/02/21 00:51:24;;;;;;;3.20;0.35;;;6.30;99.90;;;;;;5074064;28;20436;-54
2022/02/21 00:53:50;;;;;;;1.15;0.55;;;6.20;99.90;;;;;;5091771;28;20032;-61
2022/02/21 00:56:15;;;;;;;1.63;0.50;;;6.20;99.90;;;;;;5092402;28;20036;-54
2022/02/21 00:58:41;;;;;;;2.55;0.63;;;6.10;99.90;;;;;;5092621;28;20111;-52
2022/02/21 01:01:07;;;;;;;0.60;0.25;;;6.10;99.90;;;;;;5092720;28;20023;-56
2022/02/21 01:03:32;;;;;;;2.65;0.75;;;6.00;99.90;;;;;;5091684;28;20073;-56
2022/02/21 01:05:58;;;;;;;3.40;0.73;;;6.00;99.90;;;;;;5065849;28;20012;-53
2022/02/21 01:08:24;;;;;;;1.00;0.40;;;5.90;99.90;;;;;;5103156;28;20023;-52
2022/02/21 01:10:50;;;;;;;0.77;0.55;;;5.90;99.90;;;;;;5112788;28;20145;-57
2022/02/21 01:13:15;;;;;;;1.98;0.57;;;5.80;99.90;;;;;;5095353;28;20099;-55
2022/02/21 01:15:41;;;;;;;2.05;0.30;;;5.80;99.90;;;;;;5108845;28;20131;-56
2022/02/21 01:18:07;;;;;;;1.38;0.32;;;5.80;99.90;;;;;;5092039;28;20032;-56
2022/02/21 01:20:32;;;;;;;2.50;0.68;;;5.80;99.90;;;;;;5092449;28;20024;-54
2022/02/21 01:22:58;;;;;;;2.22;0.40;;;5.80;99.90;;;;;;5091873;28;20020;-57
2022/02/21 01:25:25;;;;;;;1.17;0.55;;;5.80;99.90;;;;;;5092011;28;20024;-54
2022/02/21 01:27:52;;;;;;;1.25;0.30;;;5.80;99.90;;;;;;5104924;28;20486;-57
2022/02/21 01:30:17;;;;;;;4.25;0.57;;;5.80;99.90;;;;;;5111328;28;20034;-56
2022/02/21 01:32:43;;;;;;;0.95;0.40;;;5.80;99.90;;;;;;5080822;28;20028;-57
2022/02/21 01:35:09;;;;;;;1.55;0.30;;;5.80;99.90;;;;;;5106756;28;20138;-53
2022/02/21 01:37:35;;;;;;;0.50;0.22;;;5.80;99.90;;;;;;5110792;28;20619;-53
2022/02/21 01:40:01;;;;;;;2.15;0.40;;;5.80;99.90;;;;;;5097082;28;20066;-52
2022/02/21 01:42:27;;;;;;;1.92;0.50;;;5.90;99.90;;;;;;5092775;28;20032;-52
2022/02/21 01:44:52;;;;;;;0.35;0.20;;;5.80;99.90;;;;;;5091868;28;20430;-55
2022/02/21 01:47:21;;;;;;;1.35;0.32;;;5.80;99.90;;;;;;5098582;28;20452;-53
2022/02/21 01:49:47;;;;;;;1.23;0.55;;;5.80;99.90;;;;;;5091640;28;20063;-51
2022/02/21 01:52:15;;;;;;;1.83;1.25;;;5.70;99.90;;;;;;5073306;28;20460;-51
2022/02/21 01:54:42;;;;;;;4.13;0.90;;;5.60;99.90;;;;;;5091515;28;20552;-54
2022/02/21 01:57:08;;;;;;;4.30;0.82;;;5.50;99.90;;;;;;5098257;28;20506;-53
2022/02/21 01:59:36;;;;;;;4.85;1.10;;;5.40;99.90;;;;;;5107731;28;20103;-59
2022/02/21 02:02:02;;;;;;;2.88;0.70;;;5.30;99.90;;;;;;5109136;28;20051;-53
2022/02/21 02:04:28;;;;;;;2.95;1.17;;;5.30;99.90;;;;;;5092755;28;20046;-54
2022/02/21 02:06:54;;;;;;;5.47;1.52;;;5.20;99.90;;;;;;5106342;28;20114;-54
2022/02/21 02:09:20;;;;;;;5.53;1.50;;;5.20;99.90;;;;;;5091353;28;20024;-51
2022/02/21 02:11:46;;;;;;;6.63;1.30;;;5.10;99.90;;;;;;5090905;28;20047;-56
2022/02/21 02:14:31;;;;;;;4.50;0.82;;;5.00;99.90;;;;;;5090218;28;20063;-55
2022/02/21 02:17:05;;;;;;;1.20;0.65;;;4.90;99.90;;;;;;5041514;28;20113;-57
2022/02/21 02:19:30;;;;;;;4.28;0.52;;;4.90;99.90;;;;;;5091084;28;20024;-52
2022/02/21 02:21:56;;;;;;;3.92;0.98;;;4.80;99.90;;;;;;5090887;28;20081;-54
2022/02/21 02:24:23;;;;;;;5.43;1.08;;;4.70;99.90;;;;;;5090658;28;20020;-54
2022/02/21 02:26:55;;;;;;;5.22;0.75;;;4.60;99.90;;;;;;5090640;28;20578;-52
2022/02/21 02:29:22;;;;;;;0.95;0.60;;;4.60;99.90;;;;;;5090107;28;20099;-58
2022/02/21 02:31:48;;;;;;;3.20;0.88;;;4.60;99.90;;;;;;5090443;28;20149;-59
2022/02/21 02:34:14;;;;;;;2.45;0.95;;;4.50;99.90;;;;;;5090554;28;20032;-53
2022/02/21 02:36:40;;;;;;;6.38;1.15;;;4.50;99.90;;;;;;5090046;28;20085;-51
2022/02/21 02:39:05;;;;;;;4.68;0.95;;;4.50;99.90;;;;;;5090378;28;20408;-59
2022/02/21 02:41:31;;;;;;;16.30;1.92;;;4.50;99.90;;;;;;5090635;28;20043;-56
2022/02/21 02:43:57;;;;;;;10.80;1.75;;;4.50;99.90;;;;;;5072035;28;20051;-55
2022/02/21 02:46:22;;;;;;;4.38;1.40;;;4.50;99.90;;;;;;5090802;28;20031;-52
2022/02/21 02:48:48;;;;;;;11.98;2.60;;;4.60;99.90;;;;;;5090158;28;20407;-57
2022/02/21 02:51:14;;;;;;;7.15;1.48;;;4.60;99.90;;;;;;5089842;28;20028;-55
2022/02/21 02:53:39;;;;;;;8.07;1.80;;;4.50;99.90;;;;;;5072004;28;20150;-53
2022/02/21 02:56:05;;;;;;;11.63;1.60;;;4.50;99.90;;;;;;5089685;28;20059;-52
2022/02/21 02:58:31;;;;;;;10.15;2.35;;;4.40;99.90;;;;;;5089620;28;20509;-56
2022/02/21 03:00:56;;;;;;;14.80;3.00;;;4.40;99.90;;;;;;5090154;28;20024;-54
2022/02/21 03:03:22;;;;;;;17.33;3.55;;;4.40;99.90;;;;;;5089389;28;20027;-57
2022/02/21 03:05:47;;;;;;;13.73;3.10;;;4.40;99.90;;;;;;5090114;28;20460;-56
2022/02/21 03:08:13;;;;;;;11.02;2.35;;;4.40;99.90;;;;;;5089745;28;20487;-56
2022/02/21 03:10:39;;;;;;;10.95;2.42;;;4.50;99.90;;;;;;5089945;28;20107;-55
2022/02/21 03:13:04;;;;;;;11.25;3.20;;;4.50;99.90;;;;;;5089072;28;20051;-56
2022/02/21 03:15:30;;;;;;;17.58;3.65;;;4.60;99.90;;;;;;5089174;28;20469;-54
2022/02/21 03:17:55;;;;;;;23.35;4.25;;;4.70;99.90;;;;;;5089769;28;20016;-52
2022/02/21 03:20:21;;;;;;;33.30;5.47;;;4.70;99.90;;;;;;5090163;28;20027;-56
2022/02/21 03:22:46;;;;;;;28.98;5.07;;;4.70;99.90;;;;;;5070959;28;20510;-57
2022/02/21 03:25:13;;;;;;;21.85;4.75;;;4.70;99.90;;;;;;5090046;28;20038;-53
2022/02/21 03:27:43;;;;;;;22.42;5.95;;;4.70;99.90;;;;;;5089186;28;20043;-53
2022/02/21 03:30:10;;;;;;;25.33;4.57;;;4.70;99.90;;;;;;5070692;28;20038;-55
2022/02/21 03:32:36;;;;;;;22.17;4.53;;;4.70;99.90;;;;;;5089279;28;20368;-52
2022/02/21 03:35:01;;;;;;;26.55;5.38;;;4.70;99.90;;;;;;5089949;28;20373;-57
2022/02/21 03:37:27;;;;;;;16.30;4.25;;;4.70;99.90;;;;;;5089164;28;20034;-55
2022/02/21 03:39:53;;;;;;;15.70;3.80;;;4.60;99.90;;;;;;5089534;28;20030;-53
2022/02/21 03:42:18;;;;;;;14.30;4.15;;;4.60;99.90;;;;;;5089180;28;20502;-53
2022/02/21 03:44:44;;;;;;;20.27;4.00;;;4.50;99.90;;;;;;5089192;28;20036;-52
2022/02/21 03:47:09;;;;;;;20.92;4.07;;;4.40;99.90;;;;;;5088077;28;20035;-57
2022/02/21 03:49:35;;;;;;;12.90;4.05;;;4.30;99.90;;;;;;5080734;28;20078;-57
2022/02/21 03:52:00;;;;;;;17.67;3.10;;;4.10;99.90;;;;;;5089139;28;20111;-54
2022/02/21 03:54:26;;;;;;;19.98;4.63;;;4.00;99.90;;;;;;5087976;28;20107;-54
2022/02/21 03:56:52;;;;;;;20.83;4.65;;;4.00;99.90;;;;;;5088758;28;20441;-57
2022/02/21 03:59:17;;;;;;;33.53;5.55;;;4.00;99.90;;;;;;5088895;28;20441;-51
2022/02/21 04:01:43;;;;;;;23.00;3.80;;;4.00;99.90;;;;;;5089076;28;20031;-50
2022/02/21 04:04:08;;;;;;;28.15;5.20;;;4.00;99.90;;;;;;5089072;28;20036;-50
2022/02/21 04:06:34;;;;;;;20.40;4.38;;;4.00;99.90;;;;;;5089292;28;20039;-56
2022/02/21 04:08:59;;;;;;;10.07;4.07;;;4.00;99.90;;;;;;5088737;28;20503;-56
2022/02/21 04:11:25;;;;;;;15.82;3.28;;;4.00;99.90;;;;;;5088541;28;20191;-52
2022/02/21 04:13:51;;;;;;;18.23;3.47;;;4.00;99.90;;;;;;5088720;28;20031;-53
2022/02/21 04:16:16;;;;;;;17.92;3.88;;;3.90;99.90;;;;;;5088801;28;20037;-55
2022/02/21 04:18:42;;;;;;;21.83;4.80;;;3.80;99.90;;;;;;5088618;28;20145;-54
2022/02/21 04:21:07;;;;;;;18.60;3.45;;;3.80;99.90;;;;;;5089212;28;20423;-54
2022/02/21 04:23:33;;;;;;;17.70;4.43;;;3.90;99.90;;;;;;5088385;28;20024;-56
2022/02/21 04:25:59;;;;;;;17.27;4.65;;;3.90;99.90;;;;;;5088758;28;20105;-56
2022/02/21 04:28:24;;;;;;;35.55;4.80;;;3.90;99.90;;;;;;5088856;28;20035;-57
2022/02/21 04:30:50;;;;;;;22.45;5.30;;;4.00;99.90;;;;;;5070494;28;20036;-53
2022/02/21 04:33:16;;;;;;;18.90;5.53;;;4.10;99.90;;;;;;5088584;28;20039;-53
2022/02/21 04:35:41;;;;;;;21.30;4.70;;;4.10;99.90;;;;;;5088178;28;20032;-54
2022/02/21 04:38:07;;;;;;;23.42;4.70;;;4.10;99.90;;;;;;5088411;28;20414;-55
2022/02/21 04:40:33;;;;;;;23.48;4.05;;;4.10;99.90;;;;;;5088628;28;20074;-56
2022/02/21 04:42:58;;;;;;;27.42;4.72;;;4.10;99.90;;;;;;5088350;28;20558;-50
2022/02/21 04:45:25;;;;;;;26.63;4.32;;;4.10;99.90;;;;;;5088580;28;20024;-53
2022/02/21 04:47:51;;;;;;;21.48;4.65;;;4.10;99.90;;;;;;5088440;28;20064;-53
2022/02/21 04:50:17;;;;;;;19.98;4.20;;;4.10;99.90;;;;;;5088563;28;20044;-51
2022/02/21 04:52:44;;;;;;;16.10;3.45;;;4.00;99.90;;;;;;5088302;28;20046;-56
2022/02/21 04:55:12;;;;;;;13.55;3.05;;;3.90;99.90;;;;;;5070075;28;20032;-56
2022/02/21 04:57:38;;;;;;;19.35;3.15;;;3.80;99.90;;;;;;5088239;28;20214;-53
2022/02/21 05:00:07;;;;;;;18.58;3.90;;;3.80;99.90;;;;;;5088646;28;20433;-56
2022/02/21 05:02:32;;;;;;;9.65;2.63;;;3.80;99.90;;;;;;5088337;28;20034;-55
2022/02/21 05:04:58;;;;;;;18.33;3.88;;;3.70;99.90;;;;;;5088493;28;20115;-52
2022/02/21 05:07:23;;;;;;;9.60;3.03;;;3.70;99.90;;;;;;5078338;28;20427;-57
2022/02/21 05:09:49;;;;;;;13.00;2.75;;;3.80;99.90;;;;;;5092569;28;20036;-54
2022/02/21 05:12:15;;;;;;;11.60;3.15;;;3.70;99.90;;;;;;5093410;28;20035;-52
2022/02/21 05:14:40;;;;;;;10.38;2.63;;;3.70;99.90;;;;;;5092317;28;20392;-52
2022/02/21 05:17:06;;;;;;;13.93;2.72;;;3.70;99.90;;;;;;5093456;28;20036;-56
2022/02/21 05:19:32;;;;;;;12.13;2.17;;;3.60;99.90;;;;;;5108977;28;20035;-56
2022/02/21 05:21:58;;;;;;;15.98;2.95;;;3.60;99.90;;;;;;5103308;28;20475;-54
2022/02/21 05:24:25;;;;;;;13.68;2.65;;;3.60;99.90;;;;;;5092469;28;20058;-52
2022/02/21 05:26:50;;;;;;;16.63;3.25;;;3.50;99.90;;;;;;5104257;28;20448;-56
2022/02/21 05:29:16;;;;;;;15.82;4.25;;;3.60;99.90;;;;;;5092335;28;20111;-54
2022/02/21 05:31:41;;;;;;;11.48;3.33;;;3.60;99.90;;;;;;5092016;28;20032;-53
2022/02/21 05:34:07;;;;;;;15.60;3.05;;;3.60;99.90;;;;;;5092925;28;20107;-55
2022/02/21 05:36:33;;;;;;;16.55;3.40;;;3.60;99.90;;;;;;5092301;28;20069;-54
2022/02/21 05:38:58;;;;;;;7.50;2.75;;;3.60;99.90;;;;;;5102483;28;20035;-53
2022/02/21 05:41:24;;;;;;;14.00;2.75;;;3.50;99.90;;;;;;5092845;28;20040;-54
2022/02/21 05:43:49;;;;;;;11.82;3.10;;;3.40;99.90;;;;;;5108057;28;20026;-50
2022/02/21 05:46:15;;;;;;;9.82;2.22;;;3.20;99.90;;;;;;5111979;28;20099;-53
2022/02/21 05:48:41;;;;;;;12.60;2.33;;;3.10;99.90;;;;;;5096943;28;20024;-52
2022/02/21 05:51:06;;;;;;;18.42;3.20;;;3.10;99.90;;;;;;5092086;28;20028;-52
2022/02/21 05:53:32;;;;;;;14.00;3.75;;;3.10;99.90;;;;;;5091383;28;20028;-51
2022/02/21 05:55:57;;;;;;;18.55;4.28;;;3.10;99.90;;;;;;5091406;28;20032;-57
2022/02/21 05:58:23;;;;;;;18.75;4.18;;;3.10;99.90;;;;;;5092889;28;20102;-58
2022/02/21 06:00:49;;;;;;;17.10;3.95;;;3.20;99.90;;;;;;5097859;28;20028;-52
2022/02/21 06:03:16;;;;;;;8.57;2.45;;;3.20;99.90;;;;;;5102194;28;20031;-52
2022/02/21 06:05:43;;;;;;;18.40;3.58;;;3.20;99.90;;;;;;5091767;28;20039;-52
2022/02/21 06:08:09;;;;;;;15.80;4.00;;;3.10;99.90;;;;;;5073142;28;20060;-53
2022/02/21 06:10:34;;;;;;;12.45;2.90;;;2.90;99.90;;;;;;5093101;28;20099;-51
2022/02/21 06:13:00;;;;;;;11.10;3.05;;;2.80;99.90;;;;;;5073036;28;20439;-54
2022/02/21 06:15:25;;;;;;;10.38;2.75;;;2.80;99.90;;;;;;5091150;28;20043;-49
2022/02/21 06:17:51;;;;;;;13.52;2.90;;;2.80;99.90;;;;;;5097695;28;20137;-52
2022/02/21 06:20:16;;;;;;;10.65;2.60;;;2.80;99.90;;;;;;5111431;28;20047;-50
2022/02/21 06:22:42;;;;;;;11.60;2.25;;;2.70;99.90;;;;;;5110458;28;20390;-57
2022/02/21 06:25:08;;;;;;;16.77;3.28;;;2.70;99.90;;;;;;5100107;28;20043;-52
2022/02/21 06:27:34;;;;;;;13.73;2.78;;;2.70;99.90;;;;;;5108274;28;20024;-52
2022/02/21 06:29:59;;;;;;;6.53;2.05;;;2.70;99.90;;;;;;5103437;28;20034;-52
2022/02/21 06:32:25;;;;;;;7.22;2.30;;;2.70;99.90;;;;;;5089394;28;20387;-53
2022/02/21 06:34:51;;;;;;;11.35;2.30;;;2.80;99.90;;;;;;5088851;28;20027;-50
2022/02/21 06:37:18;;;;;;;11.85;2.53;;;2.80;99.90;;;;;;5108579;28;20084;-53
2022/02/21 06:39:44;;;;;;;8.10;2.22;;;2.80;99.90;;;;;;5111324;28;20016;-55
2022/02/21 06:42:10;;;;;;;15.48;2.65;;;2.70;99.90;;;;;;5110777;28;20053;-53
2022/02/21 06:44:36;;;;;;;16.33;3.28;;;2.70;99.90;;;;;;5109451;28;20104;-54
2022/02/21 06:47:02;;;;;;;12.45;2.83;;;2.70;99.90;;;;;;5098366;28;20409;-53
2022/02/21 06:49:27;;;;;;;8.95;3.05;;;2.70;99.90;;;;;;5090445;28;20123;-54
2022/02/21 06:51:54;;;;;;;16.95;3.60;;;2.70;99.90;;;;;;5107690;28;20046;-53
2022/02/21 06:54:19;;;;;;;13.27;3.30;;;2.70;99.90;;;;;;5110389;28;20073;-55
2022/02/21 06:56:45;;;;;;;18.67;4.40;;;2.70;99.90;;;;;;5100651;28;20024;-57
2022/02/21 06:59:11;;;;;;;15.88;2.90;;;2.70;99.90;;;;;;5107122;28;20106;-50
2022/02/21 07:01:36;;;;;;;16.08;3.63;;;2.70;99.90;;;;;;5110714;28;20032;-56
2022/02/21 07:04:02;;;;;;;10.88;2.55;;;2.80;99.90;;;;;;5108603;28;20085;-54
2022/02/21 07:06:28;;;;;;;10.27;3.08;;;2.80;99.90;;;;;;5110368;28;20035;-53
2022/02/21 07:08:53;;;;;;;22.52;3.92;;;2.90;99.90;;;;;;5095699;28;20093;-56
2022/02/21 07:11:19;;;;;;;22.17;4.18;;;2.90;99.90;;;;;;5090341;28;20032;-56
2022/02/21 07:13:44;;;;;;;15.38;3.70;;;2.90;99.90;;;;;;5091141;28;20032;-50
2022/02/21 07:16:10;;;;;;;11.35;3.08;;;3.00;99.90;;;;;;5102034;28;20025;-52
2022/02/21 07:18:37;;;;;;;11.95;3.03;;;3.00;99.90;;;;;;5098714;28;20032;-55
2022/02/21 07:21:03;;;;;;;10.82;2.90;;;3.00;99.90;;;;;;5071798;28;20553;-51
2022/02/21 07:23:30;;;;;;;16.40;2.67;;;3.00;99.90;;;;;;5098141;28;20107;-51
2022/02/21 07:25:56;;;;;;;11.40;3.22;;;3.00;99.90;;;;;;5097734;28;20035;-57
2022/02/21 07:28:21;;;;;;;16.15;2.65;;;2.90;99.90;;;;;;5109490;28;20034;-52
2022/02/21 07:30:47;;;;;;;13.00;2.85;;;2.90;99.90;;;;;;5099843;28;20034;-50
2022/02/21 07:33:13;;;;;;;11.93;3.08;;;2.90;99.90;;;;;;5106007;28;20053;-52
2022/02/21 07:35:38;;;;;;;9.48;3.03;;;2.90;99.90;;;;;;5090493;28;20102;-58
2022/02/21 07:38:04;;;;;;;13.93;2.70;;;3.00;99.90;;;;;;5092766;28;20076;-55
2022/02/21 07:40:30;;;;;;;8.52;2.70;;;3.10;99.90;;;;;;5100062;28;20399;-56
2022/02/21 07:42:56;;;;;;;10.80;2.22;;;3.10;99.90;;;;;;5101411;28;20716;-56
2022/02/21 07:45:23;;;;;;;8.73;1.85;;;3.20;99.90;;;;;;5089872;28;20024;-54
2022/02/21 07:47:51;;;;;;;14.15;2.88;;;3.20;99.90;;;;;;5079219;28;20024;-54
2022/02/21 07:50:19;;;;;;;9.50;2.65;;;3.20;99.90;;;;;;5109960;28;20177;-53
2022/02/21 07:52:45;;;;;;;18.63;2.90;;;3.10;99.90;;;;;;5110067;28;20586;-55
2022/02/21 07:55:12;;;;;;;16.52;2.72;;;3.10;99.90;;;;;;5110173;28;20047;-55
2022/02/21 07:57:42;;;;;;;6.97;2.00;;;3.10;99.90;;;;;;5108844;28;20035;-56
2022/02/21 08:00:11;;;;;;;13.07;2.30;;;3.00;99.90;;;;;;5109675;28;20134;-55
2022/02/21 08:02:37;;;;;;;11.30;2.88;;;3.00;99.90;;;;;;5109503;28;20032;-55
2022/02/21 08:05:05;;;;;;;12.05;1.85;;;2.90;99.90;;;;;;5109592;28;20024;-56
2022/02/21 08:07:31;;;;;;;9.05;2.58;;;2.80;99.90;;;;;;5109542;28;20039;-53
2022/02/21 08:09:56;;;;;;;9.45;2.17;;;2.70;99.90;;;;;;5109759;28;20039;-53
2022/02/21 08:12:22;;;;;;;6.25;1.65;;;2.60;99.90;;;;;;5109223;28;20028;-52
2022/02/21 08:14:47;;;;;;;6.68;2.03;;;2.50;99.90;;;;;;5108756;28;20043;-57
2022/02/21 08:17:13;;;;;;;8.10;1.83;;;2.20;99.90;;;;;;5109288;28;20125;-56
2022/02/21 08:19:39;;;;;;;5.82;1.77;;;2.00;99.90;;;;;;5109291;28;20028;-51
2022/02/21 08:22:04;;;;;;;2.40;0.95;;;1.90;99.90;;;;;;5108962;28;20102;-51
2022/02/21 08:24:30;;;;;;;3.50;1.13;;;1.80;99.90;;;;;;5108698;28;20768;-53
2022/02/21 08:26:56;;;;;;;3.65;1.48;;;1.70;99.90;;;;;;5108980;28;20031;-52
2022/02/21 08:29:22;;;;;;;2.38;0.98;;;1.70;99.90;;;;;;5098474;28;20491;-57
2022/02/21 08:31:48;;;;;;;2.70;1.10;;;1.60;99.90;;;;;;5098418;28;20118;-56
2022/02/21 08:34:15;;;;;;;1.73;0.90;;;1.60;99.90;;;;;;5107467;28;20026;-56
2022/02/21 08:36:41;;;;;;;4.55;1.00;;;1.60;99.90;;;;;;5099906;28;20035;-52
2022/02/21 08:39:07;;;;;;;3.63;1.30;;;1.60;99.90;;;;;;5090157;28;20028;-54
2022/02/21 08:41:33;;;;;;;2.88;1.33;;;1.60;99.90;;;;;;5093300;28;20107;-53
2022/02/21 08:43:58;;;;;;;2.10;1.17;;;1.60;99.90;;;;;;5094228;28;20035;-55
2022/02/21 08:46:24;;;;;;;2.58;0.95;;;1.60;99.90;;;;;;5092866;28;20043;-55
2022/02/21 08:48:49;;;;;;;4.32;1.10;;;1.50;99.90;;;;;;5093066;28;20024;-52
2022/02/21 08:51:15;;;;;;;2.47;0.93;;;1.30;99.90;;;;;;5094055;28;20024;-50
2022/02/21 08:53:41;;;;;;;1.05;0.75;;;1.20;99.90;;;;;;5092548;28;20039;-54
2022/02/21 08:56:07;;;;;;;3.45;0.60;;;1.20;99.90;;;;;;5093253;28;20027;-55
2022/02/21 08:58:34;;;;;;;2.08;1.00;;;1.20;99.90;;;;;;5113234;28;20116;-55
2022/02/21 09:01:00;;;;;;;6.18;3.10;;;1.10;99.90;;;;;;5111661;28;20016;-51
2022/02/21 09:03:26;;;;;;;15.00;6.95;;;1.10;99.90;;;;;;5103574;28;20573;-51
2022/02/21 09:05:55;;;;;;;11.48;6.55;;;1.00;99.90;;;;;;5093648;28;20024;-50
2022/02/21 09:08:21;;;;;;;14.63;7.35;;;0.90;99.90;;;;;;5103984;28;20046;-55
2022/02/21 09:10:46;;;;;;;2.85;2.00;;;0.90;99.90;;;;;;5092774;28;20103;-53
2022/02/21 09:13:12;;;;;;;5.13;2.65;;;0.90;99.90;;;;;;5092244;28;20086;-50
2022/02/21 09:15:38;;;;;;;1.35;1.05;;;0.90;99.90;;;;;;5092257;28;20372;-54
2022/02/21 09:18:05;;;;;;;6.32;4.03;;;0.90;99.90;;;;;;5092461;28;20031;-52
2022/02/21 09:20:36;;;;;;;2.22;1.80;;;0.90;99.90;;;;;;5083263;28;20503;-54
2022/02/21 09:23:02;;;;;;;3.25;2.90;;;0.90;99.90;;;;;;5111150;28;20031;-56
2022/02/21 09:25:28;;;;;;;8.43;5.70;;;0.90;99.90;;;;;;5111717;28;20527;-54
2022/02/21 09:27:53;;;;;;;1.73;1.23;;;0.90;99.90;;;;;;5110454;28;20072;-57
2022/02/21 09:30:20;;;;;;;2.25;1.58;;;1.00;99.90;;;;;;5081298;28;20058;-51
2022/02/21 09:32:46;;;;;;;3.78;2.88;;;1.00;99.90;;;;;;5099980;28;20034;-55
2022/02/21 09:35:12;;;;;;;3.05;1.30;;;1.00;99.90;;;;;;5101993;28;20020;-53
2022/02/21 09:37:38;;;;;;;2.35;0.90;;;1.10;99.90;;;;;;5102223;28;20054;-52
2022/02/21 09:40:09;;;;;;;3.15;1.63;;;1.20;99.90;;;;;;5106442;28;20024;-53
2022/02/21 09:42:36;;;;;;;6.00;1.63;;;1.10;99.90;;;;;;5105046;28;20093;-53
2022/02/21 09:45:03;;;;;;;8.40;2.20;;;1.10;99.90;;;;;;5112765;28;20016;-53
2022/02/21 09:47:30;;;;;;;7.55;1.67;;;1.10;99.90;;;;;;5093524;28;20034;-49
2022/02/21 09:49:56;;;;;;;5.22;2.17;;;1.20;99.90;;;;;;5112189;28;20024;-57
2022/02/21 09:52:22;;;;;;;4.95;2.10;;;1.10;99.90;;;;;;5111475;28;20586;-51
2022/02/21 09:54:48;;;;;;;8.15;2.50;;;1.20;99.90;;;;;;5111674;28;20028;-50
2022/02/21 09:57:15;;;;;;;8.30;2.20;;;1.20;99.90;;;;;;5112088;28;20062;-51
2022/02/21 09:59:41;;;;;;;8.80;2.47;;;1.30;99.90;;;;;;5112111;28;20023;-56
2022/02/21 10:02:17;;;;;;;9.18;2.13;;;1.40;99.90;;;;;;5112107;28;20031;-53
2022/02/21 10:04:43;;;;;;;9.15;2.50;;;1.40;99.90;;;;;;5111876;28;20016;-54
2022/02/21 10:07:09;;;;;;;18.65;3.45;;;1.50;99.90;;;;;;5111733;28;20027;-55
2022/02/21 10:09:40;;;;;;;10.32;2.75;;;1.60;99.90;;;;;;5111458;28;20138;-54
2022/02/21 10:12:06;;;;;;;12.75;2.97;;;1.80;99.90;;;;;;5093362;28;20066;-52
2022/02/21 10:14:32;;;;;;;12.00;3.45;;;1.90;99.90;;;;;;5093343;28;20020;-53
2022/02/21 10:17:02;;;;;;;10.82;3.15;;;2.00;99.90;;;;;;5111890;28;20400;-52
2022/02/21 10:19:38;;;;;;;11.30;2.63;;;2.10;99.90;;;;;;5111534;28;20026;-55
2022/02/21 10:22:10;;;;;;;16.35;2.83;;;2.20;99.90;;;;;;5111879;28;20019;-55
2022/02/21 10:24:42;;;;;;;11.80;2.72;;;2.30;99.90;;;;;;5112251;28;20055;-53
2022/02/21 10:27:12;;;;;;;10.18;2.92;;;2.40;99.90;;;;;;5093340;28;20023;-52
2022/02/21 10:30:04;;;;;;;7.10;3.28;;;2.50;99.90;;;;;;5111588;28;20032;-53
2022/02/21 10:32:32;;;;;;;11.88;2.72;;;2.60;99.90;;;;;;5092917;28;20094;-56
2022/02/21 10:35:17;;;;;;;16.67;3.67;;;2.70;99.90;;;;;;5111477;28;20557;-50
2022/02/21 10:37:47;;;;;;;8.27;3.22;;;2.80;99.90;;;;;;5111128;28;20058;-49
2022/02/21 10:40:16;;;;;;;14.63;2.95;;;2.90;99.90;;;;;;5106348;28;20024;-50
2022/02/21 10:42:44;;;;;;;10.95;3.25;;;2.90;99.90;;;;;;5091306;28;20052;-53
2022/02/21 10:45:13;;;;;;;13.50;3.33;;;3.10;99.90;;;;;;5101565;28;20057;-56
2022/02/21 10:47:40;;;;;;;15.27;2.92;;;3.30;99.90;;;;;;5093926;28;20054;-52
2022/02/21 10:50:06;;;;;;;11.40;2.90;;;3.40;99.90;;;;;;5091117;28;20077;-50
2022/02/21 10:52:38;;;;;;;11.93;2.75;;;3.50;99.90;;;;;;5090323;28;20028;-52
2022/02/21 10:55:09;;;;;;;13.30;3.20;;;3.60;99.90;;;;;;5090366;28;20474;-52
2022/02/21 10:57:43;;;;;;;9.18;2.03;;;3.70;99.90;;;;;;5090673;28;20395;-53
2022/02/21 11:00:10;;;;;;;14.35;2.83;;;3.70;99.90;;;;;;5072562;28;20430;-51
2022/02/21 11:02:41;;;;;;;18.30;2.42;;;3.80;99.90;;;;;;5090105;28;20036;-50
2022/02/21 11:05:09;;;;;;;14.10;2.97;;;3.80;99.90;;;;;;5090399;28;20132;-55
2022/02/21 11:07:41;;;;;;;14.65;3.25;;;3.80;99.90;;;;;;5090762;28;20404;-53
2022/02/21 11:10:08;;;;;;;12.85;2.83;;;3.80;99.90;;;;;;5072469;28;20142;-51
2022/02/21 11:12:37;;;;;;;8.48;2.00;;;3.90;99.90;;;;;;5072173;28;20391;-52
2022/02/21 11:15:04;;;;;;;7.93;2.50;;;3.90;99.90;;;;;;5090398;28;20020;-57
2022/02/21 11:17:30;;;;;;;6.65;2.20;;;3.90;99.90;;;;;;5090269;28;20107;-56
2022/02/21 11:19:55;;;;;;;11.95;3.40;;;3.90;99.90;;;;;;5071301;28;20463;-52
2022/02/21 11:22:22;;;;;;;7.57;2.28;;;3.80;99.90;;;;;;5089682;28;20016;-56
2022/02/21 11:25:13;;;;;;;11.35;2.55;;;3.80;99.90;;;;;;5089329;28;20017;-55
2022/02/21 11:27:59;;;;;;;11.40;2.72;;;3.80;99.90;;;;;;5050505;28;20107;-56
2022/02/21 11:30:27;;;;;;;10.02;2.15;;;3.80;99.90;;;;;;5070271;28;20024;-51
2022/02/21 11:33:01;;;;;;;7.03;2.05;;;3.80;99.90;;;;;;5081755;28;20402;-51
2022/02/21 11:35:27;;;;;;;10.75;3.03;;;3.80;99.90;;;;;;5090022;28;20048;-52
2022/02/21 11:37:53;;;;;;;9.38;2.40;;;3.80;99.90;;;;;;5089335;28;20055;-49
2022/02/21 11:40:18;;;;;;;5.57;2.80;;;3.80;99.90;;;;;;5088536;28;20099;-50
2022/02/21 11:42:44;;;;;;;8.68;3.00;;;3.70;99.90;;;;;;5089528;28;20099;-52
2022/02/21 11:45:25;;;;;;;7.60;2.78;;;3.70;99.90;;;;;;5090016;28;20020;-56
2022/02/21 11:47:56;;;;;;;8.27;3.13;;;3.70;99.90;;;;;;5069230;28;20020;-50
2022/02/21 11:50:28;;;;;;;11.88;3.65;;;3.70;99.90;;;;;;5069595;28;20027;-57
2022/02/21 11:52:56;;;;;;;7.50;4.50;;;3.80;99.90;;;;;;5089573;28;20036;-49
2022/02/21 11:55:39;;;;;;;8.10;3.63;;;3.80;99.90;;;;;;5071518;28;20028;-55
2022/02/21 11:58:14;;;;;;;10.73;4.60;;;3.80;99.90;;;;;;5069317;28;20029;-56
2022/02/21 12:00:41;;;;;;;7.95;3.63;;;3.80;99.90;;;;;;5071681;28;20067;-55
2022/02/21 12:03:17;;;;;;;9.20;4.15;;;3.90;99.90;;;;;;5089296;28;20081;-52
2022/02/21 12:05:43;;;;;;;;;;;3.80;99.90;;;;;;5089265;28;20052;-52
2022/02/21 12:08:40;;;;;;;7.47;3.30;;;3.80;99.90;;;;;;5093334;28;19951;-52
2022/02/21 12:11:14;;;;;;;6.85;3.35;;;3.80;99.90;;;;;;5109840;28;20038;-51
2022/02/21 12:13:48;;;;;;;9.07;2.80;;;3.70;99.90;;;;;;5109224;28;20027;-53
2022/02/21 12:16:15;;;;;;;7.88;3.00;;;3.70;99.90;;;;;;5095209;28;20027;-52
2022/02/21 12:18:50;;;;;;;10.35;3.33;;;3.70;99.90;;;;;;5106660;28;20028;-52
2022/02/21 12:21:21;;;;;;;10.38;4.82;;;3.60;99.90;;;;;;5094001;28;20554;-52
2022/02/21 12:23:53;;;;;;;14.95;5.43;;;3.60;99.90;;;;;;5093176;28;20031;-59
2022/02/21 12:26:35;;;;;;;31.10;16.90;;;3.60;99.90;;;;;;5093491;28;20028;-54
2022/02/21 12:29:15;;;;;;;8.32;3.20;;;3.60;99.90;;;;;;5093481;28;20501;-51
2022/02/21 12:31:56;;;;;;;8.43;3.45;;;3.60;99.90;;;;;;5093665;28;20639;-50
2022/02/21 12:34:27;;;;;;;24.55;10.55;;;3.60;99.90;;;;;;5074891;28;20069;-51
2022/02/21 12:36:58;;;;;;;10.75;6.38;;;3.60;99.90;;;;;;5103757;28;20031;-51
2022/02/21 12:39:26;;;;;;;17.98;8.55;;;3.60;99.90;;;;;;5113378;28;20027;-53
2022/02/21 12:41:53;;;;;;;8.43;3.45;;;3.60;99.90;;;;;;5101583;28;20382;-54
2022/02/21 12:44:20;;;;;;;6.32;3.20;;;3.60;99.90;;;;;;5092987;28;20023;-54
2022/02/21 12:46:50;;;;;;;12.25;4.78;;;3.50;99.90;;;;;;5103438;28;20104;-57
2022/02/21 12:49:29;;;;;;;16.63;7.43;;;3.50;99.90;;;;;;5113255;28;20092;-54
2022/02/21 12:51:58;;;;;;;8.50;4.43;;;3.50;99.90;;;;;;5111480;28;20379;-51